Time,TemperatureF,DewpointF,PressureIn,WindDirection,WindDirectionDegrees,WindSpeedMPH,WindSpeedGustMPH,Humidity,HourlyPrecipIn,Conditions,Clouds,dailyrainin,SoftwareType,DateUTC
2013-04-23 00:00:00,48.4,40.0,30.13,ESE,115,5.0,7.0,72,0.00,,,0.00,weatherlink.com 1.10,2013-04-23 04:00:00,
2013-04-23 00:15:00,47.9,40.0,30.13,SE,126,1.0,4.0,73,0.00,,,0.00,weatherlink.com 1.10,2013-04-23 04:15:00,
2013-04-23 00:30:00,46.9,40.0,30.12,ESE,115,2.0,5.0,76,0.00,,,0.00,weatherlink.com 1.10,2013-04-23 04:30:00,
2013-04-23 00:45:00,46.4,40.0,30.12,ESE,115,0.0,3.0,77,0.00,,,0.00,weatherlink.com 1.10,2013-04-23 04:45:00,
2013-04-23 01:00:00,46.4,39.0,30.12,ESE,115,2.0,3.0,76,0.00,,,0.00,weatherlink.com 1.10,2013-04-23 05:00:00,
2013-04-23 01:15:00,46.5,39.0,30.12,ESE,110,2.0,5.0,76,0.00,,,0.00,weatherlink.com 1.10,2013-04-23 05:15:00,
2013-04-23 01:31:00,46.5,40.0,30.11,ESE,109,2.0,7.0,77,0.00,,,0.00,weatherlink.com 1.10,2013-04-23 05:31:00,
2013-04-23 01:46:00,46.4,40.0,30.11,SE,125,3.0,8.0,77,0.00,,,0.00,weatherlink.com 1.10,2013-04-23 05:46:00,
2013-04-23 02:01:00,46.1,39.0,30.10,SE,125,4.0,6.0,77,0.00,,,0.00,weatherlink.com 1.10,2013-04-23 06:01:00,
2013-04-23 02:16:00,45.9,39.0,30.10,SE,125,5.0,7.0,78,0.00,,,0.00,weatherlink.com 1.10,2013-04-23 06:16:00,
2013-04-23 02:31:00,45.8,39.0,30.09,SE,132,3.0,5.0,78,0.00,,,0.00,weatherlink.com 1.10,2013-04-23 06:31:00,
2013-04-23 02:46:00,45.3,39.0,30.09,SE,132,3.0,5.0,79,0.00,,,0.00,weatherlink.com 1.10,2013-04-23 06:46:00,
2013-04-23 03:01:00,45.0,39.0,30.09,SE,131,0.0,5.0,79,0.00,,,0.00,weatherlink.com 1.10,2013-04-23 07:01:00,
2013-04-23 03:16:00,44.5,39.0,30.09,SE,131,1.0,2.0,81,0.00,,,0.00,weatherlink.com 1.10,2013-04-23 07:16:00,
2013-04-23 03:31:00,44.3,39.0,30.08,SE,131,0.0,1.0,81,0.00,,,0.00,weatherlink.com 1.10,2013-04-23 07:31:00,
2013-04-23 03:46:00,44.2,39.0,30.08,SE,131,1.0,3.0,82,0.00,,,0.00,weatherlink.com 1.10,2013-04-23 07:46:00,
2013-04-23 04:01:00,44.3,39.0,30.08,SE,131,0.0,2.0,82,0.00,,,0.00,weatherlink.com 1.10,2013-04-23 08:01:00,
2013-04-23 04:16:00,44.0,39.0,30.07,SE,131,0.0,3.0,83,0.00,,,0.00,weatherlink.com 1.10,2013-04-23 08:16:00,
2013-04-23 04:31:00,44.5,40.0,30.06,SE,133,3.0,5.0,83,0.00,,,0.00,weatherlink.com 1.10,2013-04-23 08:31:00,
2013-04-23 04:46:00,44.6,39.0,30.05,SE,133,0.0,3.0,82,0.00,,,0.00,weatherlink.com 1.10,2013-04-23 08:46:00,
2013-04-23 05:01:00,44.7,40.0,30.04,SE,133,3.0,4.0,82,0.00,,,0.00,weatherlink.com 1.10,2013-04-23 09:01:00,
2013-04-23 05:16:00,44.8,40.0,30.03,SE,142,7.0,10.0,82,0.00,,,0.00,weatherlink.com 1.10,2013-04-23 09:16:00,
2013-04-23 05:31:00,44.8,40.0,30.02,SSE,155,5.0,8.0,82,0.00,,,0.00,weatherlink.com 1.10,2013-04-23 09:31:00,
2013-04-23 05:46:00,44.9,40.0,30.02,SSE,155,3.0,6.0,82,0.00,,,0.00,weatherlink.com 1.10,2013-04-23 09:46:00,
2013-04-23 06:01:00,44.3,39.0,30.03,SSE,155,3.0,5.0,83,0.00,,,0.00,weatherlink.com 1.10,2013-04-23 10:01:00,
2013-04-23 06:16:00,44.5,40.0,30.04,SSE,155,0.0,3.0,83,0.00,,,0.00,weatherlink.com 1.10,2013-04-23 10:16:00,
2013-04-23 06:31:00,44.5,40.0,30.04,SSE,155,4.0,4.0,84,0.00,,,0.00,weatherlink.com 1.10,2013-04-23 10:31:00,
2013-04-23 06:46:00,45.7,41.0,30.03,SSE,159,2.0,6.0,83,0.00,,,0.00,weatherlink.com 1.10,2013-04-23 10:46:00,
2013-04-23 07:01:00,46.0,41.0,30.02,SSE,159,4.0,5.0,82,0.00,,,0.00,weatherlink.com 1.10,2013-04-23 11:01:00,
2013-04-23 07:16:00,46.2,41.0,30.02,SSE,159,4.0,5.0,82,0.00,,,0.00,weatherlink.com 1.10,2013-04-23 11:16:00,
2013-04-23 07:31:00,47.0,42.0,30.02,SSE,159,5.0,7.0,82,0.00,,,0.00,weatherlink.com 1.10,2013-04-23 11:31:00,
2013-04-23 07:46:00,48.7,42.0,30.02,SSE,161,8.0,8.0,79,0.00,,,0.00,weatherlink.com 1.10,2013-04-23 11:46:00,
2013-04-23 08:04:00,50.0,43.0,30.02,SSE,153,6.0,10.0,77,0.00,,,0.00,weatherlink.com 1.10,2013-04-23 12:04:00,
2013-04-23 08:16:00,50.0,43.0,30.02,SSE,158,7.0,10.0,77,0.00,,,0.00,weatherlink.com 1.10,2013-04-23 12:16:00,
2013-04-23 08:31:00,51.0,43.0,30.03,SSE,159,6.0,8.0,75,0.00,,,0.00,weatherlink.com 1.10,2013-04-23 12:31:00,
2013-04-23 08:46:00,51.2,44.0,30.02,SSE,160,6.0,9.0,75,0.00,,,0.00,weatherlink.com 1.10,2013-04-23 12:46:00,
2013-04-23 09:01:00,51.8,44.0,30.02,SSE,154,9.0,11.0,75,0.00,,,0.00,weatherlink.com 1.10,2013-04-23 13:01:00,
2013-04-23 09:17:00,53.9,46.0,30.02,SSE,160,7.0,11.0,74,0.00,,,0.00,weatherlink.com 1.10,2013-04-23 13:17:00,
2013-04-23 09:32:00,54.9,45.0,30.01,SE,145,8.0,10.0,70,0.00,,,0.00,weatherlink.com 1.10,2013-04-23 13:32:00,
2013-04-23 09:47:00,56.5,46.0,30.00,South,179,4.0,10.0,69,0.00,,,0.00,weatherlink.com 1.10,2013-04-23 13:47:00,
2013-04-23 10:02:00,57.7,46.0,30.00,SSE,150,6.0,8.0,65,0.00,,,0.00,weatherlink.com 1.10,2013-04-23 14:02:00,
2013-04-23 10:17:00,58.0,47.0,30.00,South,175,4.0,10.0,66,0.00,,,0.00,weatherlink.com 1.10,2013-04-23 14:17:00,
2013-04-23 10:32:00,58.9,47.0,30.00,SSE,165,5.0,11.0,64,0.00,,,0.00,weatherlink.com 1.10,2013-04-23 14:32:00,
2013-04-23 10:47:00,59.6,47.0,30.00,South,175,6.0,15.0,63,0.00,,,0.00,weatherlink.com 1.10,2013-04-23 14:47:00,
2013-04-23 11:17:00,60.9,47.0,29.99,South,186,6.0,15.0,61,0.00,,,0.00,weatherlink.com 1.10,2013-04-23 15:17:00,
2013-04-23 11:31:00,62.3,48.0,29.98,SSE,161,4.0,12.0,59,0.00,,,0.00,weatherlink.com 1.10,2013-04-23 15:31:00,
2013-04-23 11:46:00,63.1,48.0,29.99,South,185,5.0,13.0,58,0.00,,,0.00,weatherlink.com 1.10,2013-04-23 15:46:00,
2013-04-23 12:02:00,64.9,49.0,29.98,SE,144,5.0,12.0,57,0.00,,,0.00,weatherlink.com 1.10,2013-04-23 16:02:00,
2013-04-23 12:17:00,65.7,49.0,29.97,SSE,157,4.0,13.0,56,0.00,,,0.00,weatherlink.com 1.10,2013-04-23 16:17:00,
2013-04-23 12:32:00,66.4,49.0,29.97,South,173,3.0,17.0,53,0.00,,,0.00,weatherlink.com 1.10,2013-04-23 16:32:00,
2013-04-23 12:47:00,66.4,48.0,29.96,South,177,10.0,17.0,52,0.00,,,0.00,weatherlink.com 1.10,2013-04-23 16:47:00,
2013-04-23 13:02:00,66.1,49.0,29.95,SSE,165,5.0,13.0,55,0.00,,,0.00,weatherlink.com 1.10,2013-04-23 17:02:00,
2013-04-23 13:17:00,65.8,49.0,29.94,SSE,165,6.0,15.0,56,0.00,,,0.00,weatherlink.com 1.10,2013-04-23 17:17:00,
2013-04-23 13:32:00,65.9,50.0,29.93,SSE,160,5.0,14.0,57,0.00,,,0.00,weatherlink.com 1.10,2013-04-23 17:32:00,
2013-04-23 13:47:00,66.5,51.0,29.91,SSW,209,4.0,13.0,57,0.00,,,0.00,weatherlink.com 1.10,2013-04-23 17:47:00,
2013-04-23 14:02:00,66.6,51.0,29.91,SSW,199,7.0,13.0,58,0.00,,,0.00,weatherlink.com 1.10,2013-04-23 18:02:00,
2013-04-23 14:17:00,66.6,51.0,29.91,SSE,165,6.0,15.0,57,0.00,,,0.00,weatherlink.com 1.10,2013-04-23 18:17:00,
2013-04-23 14:32:00,66.5,52.0,29.90,South,187,4.0,15.0,59,0.00,,,0.00,weatherlink.com 1.10,2013-04-23 18:32:00,
2013-04-23 14:47:00,66.4,51.0,29.89,South,178,7.0,21.0,58,0.00,,,0.00,weatherlink.com 1.10,2013-04-23 18:47:00,
2013-04-23 15:02:00,66.7,51.0,29.88,SSE,150,6.0,12.0,58,0.00,,,0.00,weatherlink.com 1.10,2013-04-23 19:02:00,
2013-04-23 15:17:00,66.1,51.0,29.88,South,171,4.0,16.0,59,0.00,,,0.00,weatherlink.com 1.10,2013-04-23 19:17:00,
2013-04-23 15:32:00,65.9,51.0,29.88,South,185,2.0,14.0,59,0.00,,,0.00,weatherlink.com 1.10,2013-04-23 19:32:00,
2013-04-23 15:47:00,65.3,52.0,29.88,SSW,203,1.0,18.0,62,0.00,,,0.00,weatherlink.com 1.10,2013-04-23 19:47:00,
2013-04-23 16:02:00,62.7,55.0,29.91,WSW,238,13.0,18.0,75,0.03,,,0.03,weatherlink.com 1.10,2013-04-23 20:02:00,
2013-04-23 16:17:00,58.4,55.0,29.91,West,259,2.0,10.0,89,0.10,,,0.10,weatherlink.com 1.10,2013-04-23 20:17:00,
2013-04-23 16:32:00,57.8,56.0,29.90,SSW,202,3.0,12.0,92,0.12,,,0.12,weatherlink.com 1.10,2013-04-23 20:32:00,
2013-04-23 16:47:00,57.5,56.0,29.90,WSW,238,0.0,10.0,93,0.14,,,0.14,weatherlink.com 1.10,2013-04-23 20:47:00,
2013-04-23 17:02:00,57.3,55.0,29.90,WSW,246,2.0,9.0,93,0.12,,,0.16,weatherlink.com 1.10,2013-04-23 21:02:00,
2013-04-23 17:17:00,57.2,55.0,29.88,South,175,3.0,7.0,93,0.08,,,0.18,weatherlink.com 1.10,2013-04-23 21:17:00,
2013-04-23 17:32:00,57.2,55.0,29.89,SSW,202,1.0,8.0,93,0.07,,,0.19,weatherlink.com 1.10,2013-04-23 21:32:00,
2013-04-23 17:47:00,57.2,56.0,29.88,South,179,1.0,9.0,94,0.05,,,0.19,weatherlink.com 1.10,2013-04-23 21:47:00,
2013-04-23 18:02:00,57.4,56.0,29.87,SSE,150,3.0,8.0,94,0.04,,,0.20,weatherlink.com 1.10,2013-04-23 22:02:00,
2013-04-23 18:17:00,57.3,56.0,29.86,SSW,209,5.0,6.0,94,0.02,,,0.20,weatherlink.com 1.10,2013-04-23 22:17:00,
2013-04-23 18:32:00,57.1,55.0,29.86,South,189,2.0,7.0,93,0.01,,,0.20,weatherlink.com 1.10,2013-04-23 22:32:00,
2013-04-23 18:47:00,56.9,55.0,29.85,SW,214,1.0,6.0,94,0.02,,,0.21,weatherlink.com 1.10,2013-04-23 22:47:00,
2013-04-23 19:02:00,56.6,55.0,29.86,South,191,1.0,4.0,94,0.02,,,0.22,weatherlink.com 1.10,2013-04-23 23:02:00,
2013-04-23 19:17:00,56.4,55.0,29.85,South,190,1.0,3.0,95,0.04,,,0.24,weatherlink.com 1.10,2013-04-23 23:17:00,
2013-04-23 19:32:00,56.2,55.0,29.85,South,171,0.0,4.0,96,0.08,,,0.28,weatherlink.com 1.10,2013-04-23 23:32:00,
2013-04-23 19:47:00,56.0,55.0,29.84,SSE,163,0.0,5.0,96,0.13,,,0.34,weatherlink.com 1.10,2013-04-23 23:47:00,
2013-04-23 20:02:00,55.8,55.0,29.82,South,169,4.0,8.0,96,0.15,,,0.37,weatherlink.com 1.10,2013-04-24 00:02:00,
2013-04-23 20:17:00,55.8,55.0,29.82,SSE,150,4.0,8.0,96,0.19,,,0.43,weatherlink.com 1.10,2013-04-24 00:17:00,
2013-04-23 20:32:00,55.6,55.0,29.81,SSE,150,3.0,7.0,97,0.18,,,0.46,weatherlink.com 1.10,2013-04-24 00:32:00,
2013-04-23 20:48:00,55.4,55.0,29.80,SE,140,4.0,6.0,97,0.15,,,0.49,weatherlink.com 1.10,2013-04-24 00:48:00,
2013-04-23 21:03:00,55.3,55.0,29.80,SE,140,2.0,4.0,97,0.14,,,0.52,weatherlink.com 1.10,2013-04-24 01:03:00,
2013-04-23 21:18:00,55.1,54.0,29.80,SE,140,2.0,3.0,97,0.15,,,0.58,weatherlink.com 1.10,2013-04-24 01:18:00,
2013-04-23 21:33:00,55.1,54.0,29.79,SE,130,0.0,5.0,97,0.18,,,0.64,weatherlink.com 1.10,2013-04-24 01:33:00,
2013-04-23 21:48:00,55.0,54.0,29.79,SE,130,0.0,3.0,97,0.20,,,0.69,weatherlink.com 1.10,2013-04-24 01:48:00,
2013-04-23 22:03:00,54.9,54.0,29.79,SE,130,0.0,3.0,98,0.22,,,0.74,weatherlink.com 1.10,2013-04-24 02:03:00,
2013-04-23 22:18:00,54.9,54.0,29.79,NW,314,2.0,4.0,98,0.30,,,0.88,weatherlink.com 1.10,2013-04-24 02:18:00,
2013-04-23 22:33:00,54.9,54.0,29.80,WNW,293,4.0,9.0,98,0.33,,,0.97,weatherlink.com 1.10,2013-04-24 02:33:00,
2013-04-23 22:48:00,47.4,46.0,29.81,NW,321,10.0,21.0,95,0.33,,,1.02,weatherlink.com 1.10,2013-04-24 02:48:00,
2013-04-23 23:03:00,45.6,45.0,29.83,WNW,303,13.0,18.0,96,0.34,,,1.08,weatherlink.com 1.10,2013-04-24 03:03:00,
2013-04-23 23:18:00,44.9,44.0,29.83,NNW,340,12.0,18.0,96,0.28,,,1.16,weatherlink.com 1.10,2013-04-24 03:18:00,
2013-04-23 23:33:00,44.5,44.0,29.80,NNW,330,6.0,12.0,97,0.21,,,1.18,weatherlink.com 1.10,2013-04-24 03:33:00,
2013-04-23 23:48:00,44.6,44.0,29.82,NNW,328,8.0,13.0,97,0.19,,,1.21,weatherlink.com 1.10,2013-04-24 03:48:00,